This is the latest recevied weather packets stored in our database for station/object IZ6UQU-13. If no packets are shown the sender has not sent any weather packets the latest 10 day(s).
| Time | Temp. | Humidity | Pressure | Rain* | Wind** | Luminosity | Snow |
|---|---|---|---|---|---|---|---|
| 1777793707 | 12.22° C | 62% | 961.6 hPa | 0 mm | - | - | - |
| 1777793408 | 12.22° C | 63% | 961.6 hPa | 0 mm | - | - | - |
| 1777793107 | 12.22° C | 63% | 961.7 hPa | 0 mm | - | - | - |
| 1777792807 | 12.22° C | 63% | 961.7 hPa | 0 mm | - | - | - |
| 1777792507 | 11.11° C | 69% | 961.8 hPa | 0 mm | - | - | - |
| 1777792208 | 11.11° C | 71% | 961.7 hPa | 0 mm | - | - | - |
| 1777791907 | 10.56° C | 72% | 961.6 hPa | 0 mm | - | - | - |
| 1777791608 | 10° C | 72% | 961.7 hPa | 0 mm | - | - | - |
| 1777791307 | 10° C | 74% | 961.8 hPa | 0 mm | - | - | - |
| 1777791007 | 9.44° C | 75% | 961.7 hPa | 0 mm | - | - | - |
| 1777790707 | 9.44° C | 76% | 961.7 hPa | 0 mm | - | - | - |
| 1777790407 | 8.89° C | 76% | 961.7 hPa | 0 mm | - | - | - |
| 1777790107 | 9.44° C | 74% | 961.8 hPa | 0 mm | - | - | - |
| 1777789807 | 8.89° C | 74% | 961.7 hPa | 0 mm | - | - | - |
| 1777789507 | 8.89° C | 73% | 961.8 hPa | 0 mm | - | - | - |
| 1777789207 | 9.44° C | 70% | 961.7 hPa | 0 mm | - | - | - |
| 1777788907 | 8.89° C | 71% | 961.7 hPa | 0 mm | - | - | - |
| 1777788607 | 8.89° C | 72% | 961.6 hPa | 0 mm | - | - | - |
| 1777788307 | 8.89° C | 71% | 961.8 hPa | 0 mm | - | - | - |
| 1777788007 | 8.89° C | 71% | 961.7 hPa | 0 mm | - | - | - |
| 1777787707 | 8.89° C | 72% | 961.7 hPa | 0 mm | - | - | - |
| 1777787407 | 8.33° C | 74% | 961.7 hPa | 0 mm | - | - | - |
| 1777787107 | 7.78° C | 76% | 961.6 hPa | 0 mm | - | - | - |
| 1777786807 | 7.22° C | 78% | 961.7 hPa | 0 mm | - | - | - |
| 1777786507 | 6.67° C | 79% | 961.7 hPa | 0 mm | - | - | - |
* Rain latest hour (hover to see other rain measurements)
** Current wind speed in m/s (hover to see current wind gust speed)